Time;durP1;ratioP1;P1;durP2;ratioP2;P2;SDS_P1;SDS_P2;PMS_P1;PMS_P2;Temp;Humidity;BMP_temperature;BMP_pressure;BME280_temperature;BME280_humidity;BME280_pressure;Samples;Min_cycle;Max_cycle;Signal;HPM_P1;HPM_P2
2024/01/03 00:00:21;;;;;;;12.30;5.68;;;;;;;11.23;64.89;98643.28;4158426;28;20042;-68
2024/01/03 00:02:24;;;;;;;11.80;5.43;;;;;;;11.18;64.34;98644.22;4160332;28;20589;-68
2024/01/03 00:04:27;;;;;;;4.93;2.10;;;;;;;11.14;64.69;98665.97;4163933;28;20037;-68
2024/01/03 00:06:32;;;;;;;13.10;7.32;;;;;;;11.16;65.41;98672.00;4163032;28;20125;-68
2024/01/03 00:08:38;;;;;;;4.70;2.15;;;;;;;11.09;65.48;98674.72;4156638;28;20121;-68
2024/01/03 00:10:43;;;;;;;5.45;2.65;;;;;;;11.06;65.39;98691.25;4159575;28;20530;-68
2024/01/03 00:12:46;;;;;;;7.82;3.40;;;;;;;11.08;65.44;98699.88;4161648;28;20037;-68
2024/01/03 00:14:51;;;;;;;7.65;3.67;;;;;;;11.04;66.68;98699.94;4158312;28;20116;-68
2024/01/03 00:17:00;;;;;;;4.43;2.25;;;;;;;11.05;66.88;98707.72;4154272;28;20034;-68
2024/01/03 00:19:05;;;;;;;6.03;3.05;;;;;;;10.90;67.62;98720.97;4160787;28;20191;-69
2024/01/03 00:21:11;;;;;;;6.85;2.88;;;;;;;10.78;68.12;98719.41;4158878;28;20037;-69
2024/01/03 00:23:16;;;;;;;7.47;3.80;;;;;;;10.71;68.76;98723.00;4162413;28;20064;-69
2024/01/03 00:25:20;;;;;;;8.40;4.18;;;;;;;10.56;70.39;98722.31;4164269;28;20045;-71
2024/01/03 00:27:23;;;;;;;14.77;7.63;;;;;;;10.53;69.43;98718.88;4163308;28;20080;-70
2024/01/03 00:29:52;;;;;;;12.38;6.22;;;;;;;10.47;69.79;98719.84;4161756;28;20816;-69
2024/01/03 00:31:55;;;;;;;4.35;1.63;;;;;;;10.42;70.83;98724.25;4160547;28;20037;-70
2024/01/03 00:33:59;;;;;;;4.07;1.92;;;;;;;10.47;70.74;98718.09;4162526;28;20047;-70
2024/01/03 00:36:02;;;;;;;12.93;8.75;;;;;;;10.42;71.24;98719.03;4161685;28;20042;-70
2024/01/03 00:38:05;;;;;;;4.95;2.97;;;;;;;10.42;71.03;98717.28;4156849;28;20041;-70
2024/01/03 00:40:51;;;;;;;2.22;0.90;;;;;;;10.40;71.30;98719.06;4160193;28;20041;-70
2024/01/03 00:42:54;;;;;;;6.45;2.55;;;;;;;10.42;71.57;98725.09;4158449;28;20491;-68
2024/01/03 00:44:58;;;;;;;2.13;1.40;;;;;;;10.42;71.61;98719.88;4163650;28;20068;-68
2024/01/03 00:47:00;;;;;;;1.10;1.00;;;;;;;10.55;71.54;98723.19;4163820;28;20095;-68
2024/01/03 00:49:03;;;;;;;2.50;0.65;;;;;;;10.61;70.99;98711.84;4163648;28;20049;-68
2024/01/03 00:51:07;;;;;;;0.40;0.40;;;;;;;10.65;70.68;98723.94;4162617;28;20487;-68
2024/01/03 00:53:12;;;;;;;0.68;0.55;;;;;;;10.60;71.15;98723.13;4149883;28;20499;-68
2024/01/03 00:55:15;;;;;;;3.15;0.50;;;;;;;10.59;70.58;98730.06;4143033;28;20042;-69
2024/01/03 00:57:18;;;;;;;1.67;0.40;;;;;;;10.52;70.65;98741.41;4158575;28;20064;-68
2024/01/03 00:59:21;;;;;;;0.68;0.50;;;;;;;10.37;71.32;98745.09;4163434;28;20049;-69
2024/01/03 01:01:26;;;;;;;0.82;0.50;;;;;;;10.34;71.21;98729.53;4160465;28;20077;-68
2024/01/03 01:03:29;;;;;;;0.68;0.45;;;;;;;10.41;70.90;98725.09;4155917;28;20099;-68
2024/01/03 01:05:32;;;;;;;2.30;0.60;;;;;;;10.38;71.59;98726.03;4160599;28;20096;-68
2024/01/03 01:07:35;;;;;;;0.88;0.50;;;;;;;10.34;71.61;98732.13;4156948;28;20038;-68
2024/01/03 01:09:38;;;;;;;1.63;0.52;;;;;;;10.38;72.43;98730.34;4162049;28;20041;-67
2024/01/03 01:11:40;;;;;;;1.33;0.50;;;;;;;10.33;72.64;98722.59;4155250;28;20465;-67
2024/01/03 01:13:43;;;;;;;1.58;0.63;;;;;;;10.33;72.27;98725.19;4160388;28;20041;-67
2024/01/03 01:15:45;;;;;;;2.08;0.40;;;;;;;10.34;72.26;98728.66;4158387;28;20041;-68
2024/01/03 01:17:49;;;;;;;0.77;0.45;;;;;;;10.35;71.94;98733.84;4161554;28;20037;-67
2024/01/03 01:19:52;;;;;;;2.28;0.75;;;;;;;10.30;72.47;98718.28;4160038;28;20647;-67
2024/01/03 01:21:55;;;;;;;3.20;0.80;;;;;;;10.43;73.29;98724.22;4158766;28;20033;-67
2024/01/03 01:23:58;;;;;;;0.95;0.63;;;;;;;10.27;72.79;98741.69;4177982;28;20098;-67
2024/01/03 01:26:01;;;;;;;4.15;0.82;;;;;;;10.29;72.32;98731.28;4158447;28;20535;-67
2024/01/03 01:28:04;;;;;;;1.73;0.60;;;;;;;10.32;72.37;98746.84;4157634;28;20121;-67
2024/01/03 01:30:08;;;;;;;3.05;0.93;;;;;;;10.33;72.61;98740.78;4142337;28;20054;-67
2024/01/03 01:32:12;;;;;;;4.05;0.98;;;;;;;10.41;72.60;98756.28;4161706;28;20091;-67
2024/01/03 01:34:18;;;;;;;6.63;1.65;;;;;;;10.26;72.64;98770.28;4158498;28;20128;-67
2024/01/03 01:36:21;;;;;;;1.73;0.60;;;;;;;10.14;73.26;98774.75;4163341;28;20088;-68
2024/01/03 01:38:24;;;;;;;3.10;1.25;;;;;;;10.16;73.02;98771.28;4157400;28;20077;-68
2024/01/03 01:40:29;;;;;;;2.88;0.82;;;;;;;10.22;73.21;98766.88;4160986;28;20087;-68
2024/01/03 01:42:31;;;;;;;5.82;1.20;;;;;;;10.27;73.12;98764.22;4141096;28;20168;-68
2024/01/03 01:44:35;;;;;;;3.45;1.00;;;;;;;10.33;73.54;98779.72;4161686;28;20046;-68
2024/01/03 01:46:39;;;;;;;3.80;1.05;;;;;;;10.25;72.97;98771.16;4158080;28;20560;-68
2024/01/03 01:48:42;;;;;;;;;;;;;;;10.17;73.32;98773.84;4159432;28;20135;-69
2024/01/03 01:50:47;;;;;;;6.20;1.17;;;;;;;10.18;73.79;98766.91;4163488;28;19975;-68
2024/01/03 01:52:51;;;;;;;3.15;1.10;;;;;;;10.24;73.94;98761.66;4158772;28;20041;-68
2024/01/03 01:54:54;;;;;;;3.70;1.20;;;;;;;10.34;74.00;98759.84;4154530;28;20041;-68
2024/01/03 01:56:57;;;;;;;2.72;1.10;;;;;;;10.28;74.42;98763.34;4158253;28;20044;-68
2024/01/03 01:59:01;;;;;;;4.90;1.27;;;;;;;10.25;74.46;98764.25;4160211;28;20068;-68
2024/01/03 02:01:04;;;;;;;5.20;1.27;;;;;;;10.25;75.00;98761.66;4164160;28;20588;-68
2024/01/03 02:03:09;;;;;;;3.58;1.00;;;;;;;10.30;74.45;98766.78;4160177;28;20049;-68
2024/01/03 02:05:13;;;;;;;7.15;1.33;;;;;;;10.39;74.80;98755.44;4163331;28;20055;-68
2024/01/03 02:07:18;;;;;;;6.40;1.45;;;;;;;10.29;75.13;98772.84;4164705;28;20515;-68
2024/01/03 02:09:21;;;;;;;2.85;0.88;;;;;;;10.24;75.37;98774.66;4163037;28;20137;-68
2024/01/03 02:11:24;;;;;;;4.18;1.23;;;;;;;10.28;74.57;98773.75;4150257;28;20133;-68
2024/01/03 02:13:27;;;;;;;4.57;1.17;;;;;;;10.25;75.37;98765.97;4163539;28;20040;-68
2024/01/03 02:15:30;;;;;;;5.45;1.48;;;;;;;10.30;74.21;98759.84;4155249;28;20041;-68
2024/01/03 02:17:34;;;;;;;10.18;2.80;;;;;;;10.37;74.30;98768.47;4156325;28;20034;-68
2024/01/03 02:19:37;;;;;;;8.65;3.45;;;;;;;10.41;74.51;98767.56;4155815;28;20045;-68
2024/01/03 02:21:42;;;;;;;8.80;3.85;;;;;;;10.46;74.13;98770.94;4162686;28;20033;-68
2024/01/03 02:23:45;;;;;;;12.40;4.60;;;;;;;10.45;73.48;98764.03;4153121;28;20037;-68
2024/01/03 02:25:48;;;;;;;11.85;4.75;;;;;;;10.52;73.81;98770.00;4147464;28;20049;-68
2024/01/03 02:27:51;;;;;;;13.60;8.15;;;;;;;10.55;73.11;98772.56;4168248;28;20440;-68
2024/01/03 02:29:54;;;;;;;18.58;12.25;;;;;;;10.56;73.85;98770.84;4162987;28;20056;-68
2024/01/03 02:31:57;;;;;;;15.70;10.80;;;;;;;10.58;73.06;98763.88;4157667;28;20095;-68
2024/01/03 02:33:59;;;;;;;15.05;9.65;;;;;;;10.60;73.49;98765.56;4159107;28;20116;-68
2024/01/03 02:36:02;;;;;;;13.07;7.85;;;;;;;10.67;73.36;98763.72;4162362;28;20033;-68
2024/01/03 02:38:07;;;;;;;17.75;11.82;;;;;;;10.66;73.60;98751.66;4164166;28;20475;-68
2024/01/03 02:40:11;;;;;;;17.83;14.88;;;;;;;10.64;72.50;98755.97;4165008;28;20038;-69
2024/01/03 02:42:14;;;;;;;12.43;9.13;;;;;;;10.67;73.21;98753.34;4163948;28;20069;-69
2024/01/03 02:44:16;;;;;;;15.43;10.57;;;;;;;10.70;72.33;98748.09;4162026;28;20136;-68
2024/01/03 02:46:19;;;;;;;12.45;9.60;;;;;;;10.77;72.82;98749.72;4153502;28;20042;-69
2024/01/03 02:48:22;;;;;;;18.30;9.57;;;;;;;10.69;72.90;98759.41;4163371;28;20103;-69
2024/01/03 02:50:25;;;;;;;14.48;9.00;;;;;;;10.67;72.70;98755.94;4164942;28;20041;-69
2024/01/03 02:52:47;;;;;;;19.63;14.80;;;;;;;10.66;73.27;98736.06;4161794;28;20056;-69
2024/01/03 02:54:51;;;;;;;23.52;16.67;;;;;;;10.65;73.93;98760.31;4162153;28;20065;-68
2024/01/03 02:56:54;;;;;;;17.60;14.02;;;;;;;10.54;74.87;98772.56;4155650;28;20049;-69
2024/01/03 02:58:58;;;;;;;11.10;3.40;;;;;;;10.52;75.33;98795.13;4164301;28;20733;-69
2024/01/03 03:01:00;;;;;;;8.57;1.85;;;;;;;10.42;76.25;98805.63;4156986;28;20042;-69
2024/01/03 03:03:04;;;;;;;12.73;1.85;;;;;;;10.33;77.49;98805.72;4161518;28;20045;-69
2024/01/03 03:05:07;;;;;;;7.18;1.73;;;;;;;10.18;77.98;98808.47;4163685;28;20034;-69
2024/01/03 03:07:10;;;;;;;6.63;2.28;;;;;;;10.10;77.20;98812.03;4153172;28;20132;-68
2024/01/03 03:09:13;;;;;;;10.95;2.25;;;;;;;10.00;78.15;98812.13;4164768;28;20492;-68
2024/01/03 03:11:21;;;;;;;4.70;1.45;;;;;;;9.98;79.13;98816.47;4158321;28;20041;-68
2024/01/03 03:13:24;;;;;;;3.70;1.35;;;;;;;10.00;79.53;98812.13;4162853;28;20091;-69
2024/01/03 03:15:27;;;;;;;3.65;1.20;;;;;;;9.93;79.09;98786.22;4162024;28;20041;-70
2024/01/03 03:17:30;;;;;;;7.53;1.38;;;;;;;10.00;79.35;98779.22;4158529;28;20116;-69
2024/01/03 03:19:33;;;;;;;6.95;1.33;;;;;;;9.99;78.89;98779.25;4163277;28;20491;-69
2024/01/03 03:21:36;;;;;;;7.85;1.50;;;;;;;9.92;79.24;98783.66;4164433;28;20033;-70
2024/01/03 03:23:40;;;;;;;6.93;1.77;;;;;;;9.92;78.93;98778.47;4159358;28;20033;-69
2024/01/03 03:25:42;;;;;;;6.53;1.30;;;;;;;9.95;79.28;98783.63;4151797;28;20052;-69
2024/01/03 03:27:46;;;;;;;4.63;1.58;;;;;;;9.94;79.54;98781.88;4162804;28;20096;-68
2024/01/03 03:29:49;;;;;;;5.20;2.10;;;;;;;9.83;79.52;98788.91;4154531;28;20048;-68
2024/01/03 03:31:51;;;;;;;6.05;1.42;;;;;;;9.86;79.19;98792.34;4159176;28;20037;-68
2024/01/03 03:33:54;;;;;;;5.50;1.60;;;;;;;10.01;79.48;98787.88;4163761;28;20053;-68
2024/01/03 03:35:57;;;;;;;8.60;2.05;;;;;;;10.01;79.75;98791.34;4156950;28;20506;-68
2024/01/03 03:38:01;;;;;;;6.50;2.10;;;;;;;10.03;78.99;98779.22;4155932;28;20072;-68
2024/01/03 03:40:04;;;;;;;7.57;1.95;;;;;;;10.01;79.14;98780.09;4163976;28;20491;-68
2024/01/03 03:42:06;;;;;;;7.13;1.73;;;;;;;10.01;78.68;98788.75;4164056;28;20124;-68
2024/01/03 03:44:11;;;;;;;11.20;1.88;;;;;;;9.96;78.94;98774.97;4161507;28;20471;-69
2024/01/03 03:46:17;;;;;;;10.18;1.83;;;;;;;10.02;78.94;98787.03;4159210;28;20041;-68
2024/01/03 03:48:20;;;;;;;5.10;1.20;;;;;;;9.95;78.64;98781.88;4164848;28;20140;-68
2024/01/03 03:50:22;;;;;;;6.53;1.38;;;;;;;9.91;78.29;98787.13;4156383;28;20042;-68
2024/01/03 03:52:25;;;;;;;3.85;1.80;;;;;;;10.02;78.39;98790.47;4164583;28;20033;-67
2024/01/03 03:54:27;;;;;;;5.28;1.23;;;;;;;9.99;78.23;98785.31;4159664;28;20045;-68
2024/01/03 03:56:30;;;;;;;7.45;1.70;;;;;;;9.94;78.60;98792.28;4161491;28;20044;-68
2024/01/03 03:58:33;;;;;;;5.03;1.17;;;;;;;10.07;77.42;98804.25;4158075;28;20039;-68
2024/01/03 04:00:37;;;;;;;11.15;1.80;;;;;;;10.03;76.78;98792.19;4162068;28;20033;-68
2024/01/03 04:02:40;;;;;;;7.75;1.42;;;;;;;9.99;76.79;98806.09;4156517;28;20037;-68
2024/01/03 04:04:43;;;;;;;6.05;1.35;;;;;;;10.04;76.77;98804.28;4156882;28;20111;-68
2024/01/03 04:06:46;;;;;;;8.90;3.35;;;;;;;10.00;77.08;98807.78;4161657;28;20540;-68
2024/01/03 04:08:49;;;;;;;12.70;5.05;;;;;;;10.13;76.18;98804.19;4158577;28;20121;-68
2024/01/03 04:10:52;;;;;;;7.68;2.50;;;;;;;10.13;74.93;98805.91;4151187;28;20050;-68
2024/01/03 04:12:56;;;;;;;11.25;2.17;;;;;;;10.19;73.52;98807.59;4160916;28;20049;-68
2024/01/03 04:14:59;;;;;;;5.38;1.40;;;;;;;10.19;73.94;98798.09;4160120;28;20403;-68
2024/01/03 04:17:04;;;;;;;7.43;1.92;;;;;;;10.26;74.20;98793.66;4162560;28;20042;-68
2024/01/03 04:19:06;;;;;;;7.55;1.70;;;;;;;10.31;72.05;98790.13;4163844;28;20068;-68
2024/01/03 04:21:10;;;;;;;8.65;1.95;;;;;;;10.35;72.88;98797.94;4151682;28;20046;-68
2024/01/03 04:23:13;;;;;;;10.43;1.98;;;;;;;10.35;72.62;98813.50;4161379;28;20574;-68
2024/01/03 04:25:16;;;;;;;8.95;1.90;;;;;;;10.36;72.24;98812.63;4161973;28;20095;-68
2024/01/03 04:27:19;;;;;;;11.50;2.47;;;;;;;10.30;72.01;98816.97;4163695;28;20088;-68
2024/01/03 04:29:21;;;;;;;6.95;1.83;;;;;;;10.31;72.46;98807.47;4158562;28;20106;-68
2024/01/03 04:31:24;;;;;;;12.50;2.67;;;;;;;10.35;72.08;98806.56;4160341;28;20049;-68
2024/01/03 04:33:29;;;;;;;5.30;1.73;;;;;;;10.33;71.45;98800.50;4146195;28;20045;-69
2024/01/03 04:35:32;;;;;;;11.68;3.75;;;;;;;10.37;71.08;98812.63;4162332;28;20084;-68
2024/01/03 04:37:35;;;;;;;4.70;2.15;;;;;;;10.37;71.83;98812.63;4154297;28;20039;-68
2024/01/03 04:39:38;;;;;;;8.00;2.58;;;;;;;10.35;70.91;98824.75;4151135;28;20038;-68
2024/01/03 04:41:41;;;;;;;8.80;3.70;;;;;;;10.41;69.67;98824.69;4154939;28;20559;-68
2024/01/03 04:43:44;;;;;;;7.57;2.58;;;;;;;10.39;70.62;98821.25;4163061;28;20403;-68
2024/01/03 04:45:48;;;;;;;10.18;3.15;;;;;;;10.47;70.17;98819.44;4147138;28;20033;-67
2024/01/03 04:47:51;;;;;;;7.50;2.33;;;;;;;10.45;70.71;98826.41;4160972;28;20041;-67
2024/01/03 04:49:55;;;;;;;6.03;1.60;;;;;;;10.40;70.99;98825.56;4162277;28;20103;-68
2024/01/03 04:51:57;;;;;;;7.85;1.40;;;;;;;10.28;70.80;98825.69;4160260;28;20033;-68
2024/01/03 04:54:00;;;;;;;5.28;1.25;;;;;;;10.36;71.23;98826.47;4162029;28;20534;-67
2024/01/03 04:56:03;;;;;;;9.57;1.85;;;;;;;10.42;70.18;98825.56;4163097;28;20144;-68
2024/01/03 04:58:06;;;;;;;7.63;1.63;;;;;;;10.38;69.94;98831.66;4162493;28;20040;-68
2024/01/03 05:00:11;;;;;;;10.80;4.22;;;;;;;10.29;69.32;98835.19;4162432;28;20042;-68
2024/01/03 05:02:13;;;;;;;12.40;5.80;;;;;;;10.25;69.28;98839.56;4160980;28;20041;-68
2024/01/03 05:04:17;;;;;;;10.35;4.68;;;;;;;10.26;69.85;98841.25;4163700;28;20040;-68
2024/01/03 05:06:22;;;;;;;10.30;4.50;;;;;;;10.22;69.25;98834.41;4161685;28;20071;-68
2024/01/03 05:08:25;;;;;;;8.63;2.90;;;;;;;10.24;69.57;98837.84;4161415;28;20034;-68
2024/01/03 05:10:28;;;;;;;8.85;3.03;;;;;;;10.29;70.02;98832.59;4162064;28;20033;-68
2024/01/03 05:12:31;;;;;;;15.38;3.05;;;;;;;10.29;69.12;98840.38;4156151;28;20046;-68
2024/01/03 05:14:34;;;;;;;9.13;2.58;;;;;;;10.22;69.33;98836.13;4159834;28;20041;-68
2024/01/03 05:16:37;;;;;;;11.38;1.85;;;;;;;10.31;69.50;98836.91;4158538;28;20037;-68
2024/01/03 05:18:40;;;;;;;6.72;1.75;;;;;;;10.34;69.53;98843.84;4162333;28;20515;-68
2024/01/03 05:20:42;;;;;;;13.40;2.42;;;;;;;10.38;70.03;98829.06;4160695;28;20404;-68
2024/01/03 05:22:47;;;;;;;9.60;2.03;;;;;;;10.33;69.80;98844.66;4161008;28;20526;-68
2024/01/03 05:24:50;;;;;;;13.00;2.15;;;;;;;10.31;69.51;98838.63;4156124;28;20464;-68
2024/01/03 05:26:53;;;;;;;12.68;2.85;;;;;;;10.35;69.14;98834.28;4159949;28;20030;-68
2024/01/03 05:28:56;;;;;;;9.05;2.00;;;;;;;10.33;69.09;98830.84;4162653;28;20049;-69
2024/01/03 05:30:59;;;;;;;11.00;2.30;;;;;;;10.42;69.47;98826.41;4163115;28;20478;-68
2024/01/03 05:33:02;;;;;;;8.98;2.50;;;;;;;10.43;68.95;98830.72;4162252;28;20045;-68
2024/01/03 05:35:05;;;;;;;8.32;2.38;;;;;;;10.49;69.09;98842.78;4180805;28;20080;-68
2024/01/03 05:37:08;;;;;;;12.30;2.83;;;;;;;10.46;68.77;98838.47;4165651;28;20033;-68
2024/01/03 05:39:12;;;;;;;13.45;1.80;;;;;;;10.50;68.46;98841.03;4165285;28;20121;-69
2024/01/03 05:41:15;;;;;;;5.18;1.63;;;;;;;10.63;68.83;98850.41;4165018;28;20099;-68
2024/01/03 05:43:18;;;;;;;12.68;2.92;;;;;;;10.67;68.68;98846.06;4166838;28;20037;-68
2024/01/03 05:45:20;;;;;;;10.40;2.40;;;;;;;10.64;69.33;98847.81;4180927;28;20087;-68
2024/01/03 05:47:23;;;;;;;12.20;2.55;;;;;;;10.65;68.81;98843.47;4160651;28;20100;-68
2024/01/03 05:49:26;;;;;;;9.30;1.80;;;;;;;10.60;68.63;98840.94;4163581;28;20052;-67
2024/01/03 05:51:29;;;;;;;5.30;1.40;;;;;;;10.63;68.14;98840.00;4165848;28;20099;-67
2024/01/03 05:53:31;;;;;;;8.93;1.83;;;;;;;10.63;68.32;98842.63;4158971;28;20143;-68
2024/01/03 05:55:36;;;;;;;8.23;1.90;;;;;;;10.73;67.74;98833.84;4158485;28;20541;-67
2024/01/03 05:57:38;;;;;;;7.95;1.60;;;;;;;10.79;67.95;98846.75;4160913;28;20517;-67
2024/01/03 05:59:41;;;;;;;3.70;1.00;;;;;;;10.70;67.35;98866.81;4165919;28;20033;-67
2024/01/03 06:01:45;;;;;;;4.95;1.17;;;;;;;10.69;67.60;98844.28;4164723;28;20045;-67
2024/01/03 06:03:49;;;;;;;6.88;1.60;;;;;;;10.60;68.27;98843.53;4162540;28;20042;-67
2024/01/03 06:05:53;;;;;;;11.00;2.28;;;;;;;10.54;68.46;98835.81;4163674;28;20045;-67
2024/01/03 06:07:56;;;;;;;6.77;2.03;;;;;;;10.57;68.97;98847.88;4161176;28;20049;-67
2024/01/03 06:09:59;;;;;;;5.47;1.50;;;;;;;10.56;69.18;98834.03;4164529;28;20041;-67
2024/01/03 06:12:04;;;;;;;4.00;1.30;;;;;;;10.48;68.62;98830.66;4162577;28;20071;-68
2024/01/03 06:14:07;;;;;;;9.50;1.75;;;;;;;10.42;68.79;98836.78;4164323;28;20517;-67
2024/01/03 06:16:10;;;;;;;6.47;1.80;;;;;;;10.53;69.24;98825.41;4164349;28;20543;-69
2024/01/03 06:18:13;;;;;;;5.20;1.63;;;;;;;10.54;69.07;98835.81;4163065;28;20041;-68
2024/01/03 06:20:17;;;;;;;9.18;2.08;;;;;;;10.53;68.83;98828.88;4164798;28;20064;-69
2024/01/03 06:22:22;;;;;;;3.92;1.40;;;;;;;10.54;69.97;98829.75;4162123;28;20045;-68
2024/01/03 06:24:26;;;;;;;5.00;1.58;;;;;;;10.56;69.67;98818.47;4163970;28;20049;-69
2024/01/03 06:26:32;;;;;;;8.73;1.98;;;;;;;10.59;69.54;98822.75;4163637;28;20042;-69
2024/01/03 06:28:37;;;;;;;7.78;2.00;;;;;;;10.53;69.78;98821.09;4163995;28;20607;-69
2024/01/03 06:30:40;;;;;;;7.80;2.40;;;;;;;10.56;69.94;98815.84;4163263;28;20497;-69
2024/01/03 06:32:42;;;;;;;9.03;2.97;;;;;;;10.51;69.48;98819.38;4161960;28;20084;-67
2024/01/03 06:34:45;;;;;;;7.03;1.50;;;;;;;10.44;69.68;98819.47;4163088;28;20034;-67
2024/01/03 06:36:48;;;;;;;5.03;1.50;;;;;;;10.56;69.07;98817.59;4161971;28;20038;-69
2024/01/03 06:38:52;;;;;;;4.93;0.82;;;;;;;10.50;68.74;98828.06;4161797;28;20148;-69
2024/01/03 06:40:55;;;;;;;11.05;1.98;;;;;;;10.53;69.40;98828.00;4163460;28;20123;-69
2024/01/03 06:42:58;;;;;;;8.60;1.73;;;;;;;10.50;68.75;98822.84;4164658;28;20046;-68
2024/01/03 06:45:02;;;;;;;8.55;2.28;;;;;;;10.47;68.77;98818.56;4164804;28;20380;-67
2024/01/03 06:47:05;;;;;;;3.03;1.33;;;;;;;10.47;68.98;98840.22;4164579;28;20087;-67
2024/01/03 06:49:08;;;;;;;7.90;1.63;;;;;;;10.47;67.94;98828.97;4164441;28;20046;-68
2024/01/03 06:51:11;;;;;;;6.63;1.25;;;;;;;10.44;68.25;98829.84;4162480;28;20038;-68
2024/01/03 06:53:14;;;;;;;8.27;1.48;;;;;;;10.51;67.65;98829.78;4164718;28;20041;-68
2024/01/03 06:55:17;;;;;;;9.98;1.83;;;;;;;10.46;67.79;98817.69;4162884;28;20045;-69
2024/01/03 06:57:20;;;;;;;9.65;1.88;;;;;;;10.45;68.02;98826.41;4163448;28;20045;-69
2024/01/03 06:59:24;;;;;;;6.68;1.77;;;;;;;10.48;68.86;98818.56;4162184;28;20038;-69
2024/01/03 07:01:28;;;;;;;5.65;1.40;;;;;;;10.50;68.33;98812.47;4164338;28;20419;-69
2024/01/03 07:03:31;;;;;;;4.07;1.27;;;;;;;10.50;68.70;98799.47;4162340;28;20283;-69
2024/01/03 07:05:34;;;;;;;7.30;1.98;;;;;;;10.65;68.24;98801.88;4163975;28;20111;-69
2024/01/03 07:07:38;;;;;;;12.00;1.95;;;;;;;10.58;68.51;98795.06;4163245;28;20092;-69
2024/01/03 07:09:41;;;;;;;5.35;1.50;;;;;;;10.58;68.82;98784.66;4164175;28;20080;-69
2024/01/03 07:11:44;;;;;;;4.05;1.38;;;;;;;10.43;69.08;98794.34;4162330;28;20533;-69
2024/01/03 07:13:47;;;;;;;4.40;1.38;;;;;;;10.36;69.45;98804.84;4163435;28;20033;-69
2024/01/03 07:15:49;;;;;;;6.38;1.50;;;;;;;10.28;70.19;98821.34;4162886;28;20398;-69
2024/01/03 07:17:55;;;;;;;10.30;1.63;;;;;;;10.29;70.38;98815.28;4160190;28;20048;-69
2024/01/03 07:19:58;;;;;;;6.97;1.30;;;;;;;10.43;70.05;98815.13;4149518;28;20394;-69
2024/01/03 07:22:01;;;;;;;6.10;1.50;;;;;;;10.41;69.91;98823.81;4153935;28;20132;-69
2024/01/03 07:24:04;;;;;;;6.50;1.15;;;;;;;10.37;70.12;98832.56;4144296;28;20034;-69
2024/01/03 07:26:08;;;;;;;4.53;1.10;;;;;;;10.33;71.31;98839.47;4157352;28;20041;-69
2024/01/03 07:28:10;;;;;;;7.88;1.65;;;;;;;10.42;70.84;98846.34;4158218;28;20052;-69
2024/01/03 07:30:15;;;;;;;3.83;1.00;;;;;;;10.40;71.36;98854.16;4159920;28;20039;-69
2024/01/03 07:32:18;;;;;;;5.05;1.70;;;;;;;10.33;71.36;98851.59;4159183;28;20045;-69
2024/01/03 07:34:22;;;;;;;7.15;1.70;;;;;;;10.41;71.60;98850.69;4161705;28;20072;-69
2024/01/03 07:36:25;;;;;;;6.97;1.83;;;;;;;10.37;72.13;98849.00;4158698;28;20094;-69
2024/01/03 07:38:28;;;;;;;9.00;1.65;;;;;;;10.43;72.85;98853.25;4161989;28;20099;-69
2024/01/03 07:40:31;;;;;;;6.53;2.63;;;;;;;10.43;72.23;98855.84;4162587;28;20068;-70
2024/01/03 07:42:34;;;;;;;3.75;1.00;;;;;;;10.47;72.85;98855.81;4155642;28;20095;-69
2024/01/03 07:44:41;;;;;;;9.05;1.83;;;;;;;10.45;73.08;98854.97;4162967;28;20395;-69
2024/01/03 07:46:44;;;;;;;9.13;1.67;;;;;;;10.46;73.06;98854.06;4159567;28;20037;-69
2024/01/03 07:48:47;;;;;;;12.88;2.63;;;;;;;10.46;72.55;98843.69;4162128;28;20037;-69
2024/01/03 07:50:53;;;;;;;10.80;1.80;;;;;;;10.39;72.87;98842.03;4158834;28;20067;-69
2024/01/03 07:52:56;;;;;;;8.18;2.33;;;;;;;10.49;73.73;98842.78;4157843;28;20151;-69
2024/01/03 07:54:58;;;;;;;4.47;1.20;;;;;;;10.51;73.96;98847.97;4160150;28;20041;-70
2024/01/03 07:57:02;;;;;;;7.85;1.92;;;;;;;10.43;73.49;98843.72;4164476;28;20072;-69
2024/01/03 07:59:05;;;;;;;5.65;1.42;;;;;;;10.41;74.55;98842.88;4157820;28;20422;-69
2024/01/03 08:01:08;;;;;;;5.80;1.50;;;;;;;10.36;74.46;98829.06;4154445;28;20080;-69
2024/01/03 08:03:11;;;;;;;6.57;1.65;;;;;;;10.38;74.25;98829.94;4159404;28;20053;-69
2024/01/03 08:05:15;;;;;;;7.35;1.70;;;;;;;10.36;74.99;98823.88;4160551;28;20030;-69
2024/01/03 08:07:19;;;;;;;10.43;2.40;;;;;;;10.30;74.84;98831.72;4179263;28;20179;-70
2024/01/03 08:09:22;;;;;;;9.85;1.60;;;;;;;10.30;75.92;98834.31;4162360;28;20047;-69
2024/01/03 08:11:26;;;;;;;7.80;2.03;;;;;;;10.33;75.51;98829.09;4161875;28;20034;-69
2024/01/03 08:13:29;;;;;;;6.18;1.83;;;;;;;10.30;75.86;98836.91;4158101;28;20060;-69
2024/01/03 08:15:32;;;;;;;4.45;1.30;;;;;;;10.31;75.62;98830.84;4156403;28;20041;-69
2024/01/03 08:17:34;;;;;;;6.15;1.50;;;;;;;10.29;76.42;98830.88;4157634;28;20094;-69
2024/01/03 08:19:39;;;;;;;7.38;1.75;;;;;;;10.34;76.63;98830.84;4157435;28;20045;-69
2024/01/03 08:21:42;;;;;;;4.88;1.40;;;;;;;10.37;76.20;98820.41;4152546;28;20034;-69
2024/01/03 08:23:46;;;;;;;6.28;1.65;;;;;;;10.46;75.79;98809.91;4162523;28;20033;-69
2024/01/03 08:25:49;;;;;;;9.52;1.80;;;;;;;10.39;75.67;98815.19;4175160;28;20124;-69
2024/01/03 08:27:52;;;;;;;8.07;1.58;;;;;;;10.42;75.37;98810.81;4162013;28;20526;-69
2024/01/03 08:29:55;;;;;;;6.30;1.98;;;;;;;10.36;75.54;98815.25;4157786;28;20148;-69
2024/01/03 08:31:58;;;;;;;10.52;1.80;;;;;;;10.46;75.53;98820.28;4155966;28;20085;-69
2024/01/03 08:34:00;;;;;;;7.00;1.35;;;;;;;10.45;75.78;98826.41;4157886;28;20072;-69
2024/01/03 08:36:04;;;;;;;6.05;1.63;;;;;;;10.45;75.37;98810.81;4153834;28;20041;-69
2024/01/03 08:38:06;;;;;;;9.13;1.65;;;;;;;10.45;75.80;98813.41;4157607;28;20041;-69
2024/01/03 08:40:11;;;;;;;9.80;1.80;;;;;;;10.47;76.33;98819.44;4161563;28;20483;-69
2024/01/03 08:42:14;;;;;;;9.38;3.08;;;;;;;10.39;76.67;98826.44;4158231;28;20084;-69
2024/01/03 08:44:17;;;;;;;5.72;1.33;;;;;;;10.30;76.66;98821.31;4163863;28;20038;-69
2024/01/03 08:46:19;;;;;;;6.85;2.33;;;;;;;10.23;77.32;98820.53;4152812;28;20077;-69
2024/01/03 08:48:22;;;;;;;9.23;2.10;;;;;;;10.26;77.20;98824.81;4157314;28;20638;-69
2024/01/03 08:50:25;;;;;;;6.82;1.75;;;;;;;10.19;78.46;98820.56;4160228;28;20068;-70
2024/01/03 08:52:29;;;;;;;5.65;1.48;;;;;;;10.21;78.34;98824.88;4157621;28;20332;-70
2024/01/03 08:54:32;;;;;;;7.45;1.58;;;;;;;10.15;79.21;98814.56;4156812;28;20099;-69
2024/01/03 08:56:35;;;;;;;5.15;1.25;;;;;;;10.17;78.68;98814.56;4159185;28;20029;-69
2024/01/03 08:58:38;;;;;;;10.10;2.17;;;;;;;10.31;79.13;98820.47;4151799;28;20503;-68
2024/01/03 09:00:44;;;;;;;6.55;1.80;;;;;;;10.33;77.91;98810.91;4152518;28;20521;-68
2024/01/03 09:02:46;;;;;;;6.28;1.55;;;;;;;10.28;78.88;98823.09;4159125;28;20046;-68
2024/01/03 09:04:49;;;;;;;6.07;1.35;;;;;;;10.46;78.75;98816.84;4157784;28;20045;-68
2024/01/03 09:06:52;;;;;;;6.97;1.40;;;;;;;10.34;78.73;98830.84;4167293;28;20083;-68
2024/01/03 09:08:55;;;;;;;7.57;1.80;;;;;;;10.31;78.54;98829.09;4159401;28;20050;-68
2024/01/03 09:10:58;;;;;;;5.78;1.60;;;;;;;10.40;78.11;98838.56;4160200;28;20030;-68
2024/01/03 09:13:03;;;;;;;7.00;1.70;;;;;;;10.41;77.69;98842.00;4179554;28;20560;-68
2024/01/03 09:15:06;;;;;;;4.80;1.38;;;;;;;10.47;76.51;98855.81;4153206;28;20049;-68
2024/01/03 09:17:09;;;;;;;6.50;1.20;;;;;;;10.55;76.99;98849.66;4162939;28;20047;-68
2024/01/03 09:19:14;;;;;;;10.00;1.80;;;;;;;10.57;76.14;98864.38;4172759;28;20069;-68
2024/01/03 09:21:18;;;;;;;7.90;1.80;;;;;;;10.63;75.35;98858.19;4159489;28;20033;-69
2024/01/03 09:23:21;;;;;;;4.50;1.42;;;;;;;10.67;75.28;98853.84;4160543;28;20091;-68
2024/01/03 09:25:24;;;;;;;6.88;1.52;;;;;;;10.73;74.53;98841.66;4154826;28;20136;-68
2024/01/03 09:27:27;;;;;;;8.13;1.38;;;;;;;10.77;73.79;98858.06;4150312;28;20052;-68
2024/01/03 09:29:31;;;;;;;4.72;1.40;;;;;;;10.81;73.43;98870.13;4138248;28;20503;-70
2024/01/03 09:31:41;;;;;;;5.43;1.30;;;;;;;10.80;73.67;98858.00;4159964;28;20200;-67
2024/01/03 09:33:44;;;;;;;4.07;0.93;;;;;;;10.78;71.65;98894.41;4157816;28;20037;-66
2024/01/03 09:35:47;;;;;;;1.38;0.60;;;;;;;10.63;72.21;98892.88;4153927;28;20033;-69
2024/01/03 09:37:50;;;;;;;4.53;1.15;;;;;;;10.46;73.69;98884.41;4167907;28;20131;-71
2024/01/03 09:39:53;;;;;;;4.32;1.17;;;;;;;10.32;74.63;98866.31;4160825;28;20072;-70